EW2266 Weather Reports


Display with metric or nautical units.
time (UTC)temp
F
wind
direction
speed
MPH
gust
MPH
rain 1hr
in
rain 24hr
in
rain mn
in
humidity
%
barometer
mb
20200226000525 76 127 1.0 3.0 0.00 0.00 0.00 22 1023.3
20200226000038 76 86 2.0 4.0 0.00 0.00 0.00 22 1023.3
20200225235536 76 337 2.0 5.0 0.00 0.00 0.00 22 1023.3
20200225235022 76 255 2.0 6.0 0.00 0.00 0.00 23 1023.4
20200225234525 76 359 1.0 5.0 0.00 0.00 0.00 24 1023.4
20200225234035 76 35 3.0 5.0 0.00 0.00 0.00 22 1023.5
20200225233515 76 316 1.0 4.0 0.00 0.00 0.00 22 1023.5
20200225233017 76 297 1.0 4.0 0.00 0.00 0.00 23 1023.4
20200225232519 76 60 1.0 3.0 0.00 0.00 0.00 23 1023.5
20200225232028 76 340 1.0 5.0 0.00 0.00 0.00 23 1023.5
20200225231531 75 42 2.0 6.0 0.00 0.00 0.00 24 1023.5
20200225231032 75 264 2.0 7.0 0.00 0.00 0.00 23 1023.5
20200225230538 75 307 2.0 7.0 0.00 0.00 0.00 23 1023.5
20200225230031 75 280 2.0 8.0 0.00 0.00 0.00 23 1023.5
20200225225529 75 328 3.0 8.0 0.00 0.00 0.00 23 1023.6
20200225225038 75 335 3.0 6.0 0.00 0.00 0.00 23 1023.5
20200225224521 75 290 3.0 8.0 0.00 0.00 0.00 22 1023.7
20200225224022 75 336 4.0 6.0 0.00 0.00 0.00 22 1023.6
20200225223531 75 310 2.0 9.0 0.00 0.00 0.00 22 1023.6
20200225223033 75 276 3.0 9.0 0.00 0.00 0.00 21 1023.7
20200225222515 75 316 2.0 9.0 0.00 0.00 0.00 22 1023.7
20200225222017 75 306 1.0 6.0 0.00 0.00 0.00 23 1023.6
20200225221527 75 268 3.0 6.0 0.00 0.00 0.00 22 1023.7
20200225221028 75 289 2.0 8.0 0.00 0.00 0.00 21 1023.7
20200225220537 75 319 4.0 8.0 0.00 0.00 0.00 20 1023.7
20200225220030 75 317 3.0 5.0 0.00 0.00 0.00 20 1023.7
20200225215609 75 301 1.0 9.0 0.00 0.00 0.00 21 1023.8
20200225215026 75 294 3.0 9.0 0.00 0.00 0.00 19 1023.9
20200225214516 75 285 3.0 8.0 0.00 0.00 0.00 19 1023.9
20200225214024 75 312 3.0 8.0 0.00 0.00 0.00 19 1024.1
20200225213526 74 252 1.0 7.0 0.00 0.00 0.00 20 1024.3
20200225213028 74 320 5.0 8.0 0.00 0.00 0.00 19 1024.4
20200225212537 74 276 3.0 8.0 0.00 0.00 0.00 20 1024.5
20200225212019 73 334 3.0 8.0 0.00 0.00 0.00 20 1024.6
20200225211522 74 316 5.0 8.0 0.00 0.00 0.00 20 1024.7
20200225211030 74 315 4.0 8.0 0.00 0.00 0.00 20 1024.7
20200225210519 73 319 3.0 8.0 0.00 0.00 0.00 20 1024.8
20200225210032 73 306 5.0 8.0 0.00 0.00 0.00 20 1024.9
20200225205530 73 305 5.0 8.0 0.00 0.00 0.00 20 1024.9
20200225205032 73 316 3.0 8.0 0.00 0.00 0.00 19 1025.1
20200225204516 73 302 3.0 8.0 0.00 0.00 0.00 20 1025.1
20200225204015 73 329 3.0 8.0 0.00 0.00 0.00 21 1025.2
20200225203525 72 290 3.0 8.0 0.00 0.00 0.00 20 1025.2
20200225203013 72 321 5.0 8.0 0.00 0.00 0.00 21 1025.4
20200225202523 72 242 4.0 9.0 0.00 0.00 0.00 21 1025.3
20200225202031 71 314 4.0 9.0 0.00 0.00 0.00 22 1025.4
20200225201515 71 259 4.0 9.0 0.00 0.00 0.00 21 1025.4
20200225201015 71 282 5.0 11.0 0.00 0.00 0.00 21 1025.6
20200225200520 71 328 5.0 11.0 0.00 0.00 0.00 21 1025.5
20200225200038 71 272 2.0 12.0 0.00 0.00 0.00 23 1025.6
20200225195527 71 270 5.0 12.0 0.00 0.00 0.00 21 1025.7
20200225194526 70 320 2.0 9.0 0.00 0.00 0.00 23 1025.6
20200225194027 70 320 5.0 12.0 0.00 0.00 0.00 22 1025.7
20200225193539 70 299 5.0 11.0 0.00 0.00 0.00 22 1025.7
20200225193021 70 315 5.0 10.0 0.00 0.00 0.00 23 1025.8
20200225192521 69 302 4.0 11.0 0.00 0.00 0.00 24 1025.8
20200225191539 69 297 5.0 14.0 0.00 0.00 0.00 24 1025.9
20200225191020 69 335 5.0 14.0 0.00 0.00 0.00 23 1025.9
20200225190523 69 297 5.0 13.0 0.00 0.00 0.00 24 1025.9
20200225190043 69 303 5.0 12.0 0.00 0.00 0.00 24 1025.9
20200225185517 68 335 5.0 12.0 0.00 0.00 0.00 24 1025.8
20200225185019 68 63 5.0 16.0 0.00 0.00 0.00 23 1025.9
20200225184540 68 330 6.0 16.0 0.00 0.00 0.00 23 1025.8
20200225184025 68 265 4.0 10.0 0.00 0.00 0.00 23 1025.8
20200225183527 68 328 5.0 13.0 0.00 0.00 0.00 24 1025.7
20200225183029 68 298 5.0 13.0 0.00 0.00 0.00 24 1025.8
20200225182514 68 276 4.0 8.0 0.00 0.00 0.00 24 1025.7
20200225182023 68 322 4.0 8.0 0.00 0.00 0.00 24 1025.7
20200225181526 67 308 5.0 11.0 0.00 0.00 0.00 24 1025.8
20200225181036 67 331 4.0 12.0 0.00 0.00 0.00 24 1025.7
20200225180514 67 305 3.0 12.0 0.00 0.00 0.00 24 1025.8
20200225180027 67 328 4.0 10.0 0.00 0.00 0.00 24 1025.6
20200225175524 67 280 3.0 7.0 0.00 0.00 0.00 25 1025.7
20200225175025 67 316 2.0 7.0 0.00 0.00 0.00 25 1025.7
20200225174529 67 247 3.0 7.0 0.00 0.00 0.00 26 1025.7
20200225173524 66 327 4.0 10.0 0.00 0.00 0.00 27 1025.8
20200225173026 65 331 1.0 3.0 0.00 0.00 0.00 31 1025.8
20200225172528 65 53 0.0 2.0 0.00 0.00 0.00 34 1025.8
20200225172038 64 89 0.0 3.0 0.00 0.00 0.00 33 1025.8
20200225171520 63 79 1.0 3.0 0.00 0.00 0.00 33 1025.8
20200225171021 63 98 0.0 2.0 0.00 0.00 0.00 35 1025.9
20200225170530 62 120 0.0 3.0 0.00 0.00 0.00 38 1025.8
20200225170042 61 120 0.0 3.0 0.00 0.00 0.00 39 1025.9
20200225165513 60 69 0.0 1.0 0.00 0.00 0.00 41 1025.9
20200225165022 59 159 0.0 4.0 0.00 0.00 0.00 44 1025.9
20200225164525 58 76 0.0 4.0 0.00 0.00 0.00 46 1025.9
20200225164027 56 65 1.0 3.0 0.00 0.00 0.00 48 1025.9
20200225163535 55 305 0.0 5.0 0.00 0.00 0.00 53 1025.9
20200225163017 54 30 1.0 4.0 0.00 0.00 0.00 56 1025.8
20200225162519 53 116 1.0 2.0 0.00 0.00 0.00 59 1025.9
20200225162035 52 189 0.0 3.0 0.00 0.00 0.00 60 1025.8
20200225161525 51 115 1.0 3.0 0.00 0.00 0.00 64 1025.7
20200225161026 50 88 1.0 3.0 0.00 0.00 0.00 70 1025.9
20200225160528 49 161 0.0 1.0 0.00 0.00 0.00 71 1025.8
20200225160029 49 162 0.0 1.0 0.00 0.00 0.00 73 1025.8
20200225155520 48 79 0.0 1.0 0.00 0.00 0.00 75 1025.7
20200225155109 48 79 0.0 1.0 0.00 0.00 0.00 75 1025.7
20200225154527 48 148 0.0 0.0 0.00 0.00 0.00 75 1025.7
20200225154035 47 148 0.0 0.0 0.00 0.00 0.00 75 1025.6
20200225153524 46 149 0.0 1.0 0.00 0.00 0.00 77 1025.5
20200225153026 46 151 0.0 1.0 0.00 0.00 0.00 78 1025.5
20200225152535 46 166 0.0 1.0 0.00 0.00 0.00 79 1025.5
20200225152024 45 139 0.0 1.0 0.00 0.00 0.00 82 1025.3
20200225151527 45 137 0.0 1.0 0.00 0.00 0.00 82 1025.4
20200225151028 44 165 0.0 1.0 0.00 0.00 0.00 84 1025.3
20200225150537 44 229 0.0 4.0 0.00 0.00 0.00 83 1025.2
20200225150031 44 113 0.0 4.0 0.00 0.00 0.00 83 1025.2
20200225145521 44 328 0.0 1.0 0.00 0.00 0.00 83 1025.1
20200225145030 44 91 0.0 1.0 0.00 0.00 0.00 83 1025.1
20200225144533 44 293 0.0 3.0 0.00 0.00 0.00 83 1025.1
20200225144014 44 190 1.0 3.0 0.00 0.00 0.00 83 1025.0
20200225143523 44 127 0.0 1.0 0.00 0.00 0.00 83 1025.1
20200225143032 44 127 0.0 1.0 0.00 0.00 0.00 82 1025.1
20200225142030 44 244 0.0 1.0 0.00 0.00 0.00 82 1025.0
20200225141540 45 148 0.0 3.0 0.00 0.00 0.00 81 1025.0
20200225141019 45 27 1.0 3.0 0.00 0.00 0.00 81 1025.0
20200225140521 45 75 0.0 3.0 0.00 0.00 0.00 82 1025.1
20200225140102 45 162 0.0 3.0 0.00 0.00 0.00 82 1025.0
20200225135513 45 96 0.0 1.0 0.00 0.00 0.00 82 1025.1
20200225135016 45 100 0.0 2.0 0.00 0.00 0.00 82 1024.9
20200225134525 45 292 0.0 1.0 0.00 0.00 0.00 81 1025.0
20200225134027 45 131 0.0 1.0 0.00 0.00 0.00 82 1025.0
20200225133528 45 91 0.0 3.0 0.00 0.00 0.00 82 1024.9
20200225133037 45 151 1.0 3.0 0.00 0.00 0.00 83 1024.9
20200225132520 45 188 0.0 2.0 0.00 0.00 0.00 82 1025.0
20200225132022 45 239 0.0 2.0 0.00 0.00 0.00 83 1025.0
20200225131532 45 219 0.0 4.0 0.00 0.00 0.00 84 1025.0
20200225131018 44 160 1.0 2.0 0.00 0.00 0.00 85 1024.9
20200225130520 44 201 0.0 1.0 0.00 0.00 0.00 84 1024.9
20200225130040 44 202 0.0 1.0 0.00 0.00 0.00 84 1024.8
20200225125513 44 20 0.0 3.0 0.00 0.00 0.00 84 1024.9
20200225125014 44 203 1.0 2.0 0.00 0.00 0.00 84 1024.8
20200225124517 44 150 0.0 2.0 0.00 0.00 0.00 84 1024.8
20200225124026 45 61 0.0 1.0 0.00 0.00 0.00 83 1024.9
20200225123527 45 195 0.0 1.0 0.00 0.00 0.00 82 1024.8
20200225123017 45 195 0.0 1.0 0.00 0.00 0.00 82 1024.8
20200225122525 46 197 0.0 1.0 0.00 0.00 0.00 81 1024.9
20200225122027 46 214 0.0 1.0 0.00 0.00 0.00 81 1024.9
20200225121530 46 216 0.0 3.0 0.00 0.00 0.00 81 1024.9
20200225121038 46 196 0.0 3.0 0.00 0.00 0.00 82 1024.8
20200225120520 46 162 1.0 4.0 0.00 0.00 0.00 83 1024.8
20200225120033 46 202 2.0 3.0 0.00 0.00 0.00 83 1024.7
20200225115531 45 276 0.0 2.0 0.00 0.00 0.00 83 1024.8
20200225115013 45 202 0.0 1.0 0.00 0.00 0.00 83 1024.8
20200225114516 45 191 0.0 1.0 0.00 0.00 0.00 83 1024.8
20200225114016 45 142 0.0 2.0 0.00 0.00 0.00 83 1024.8
20200225113525 45 147 0.0 5.0 0.00 0.00 0.00 83 1024.9
20200225113027 45 152 1.0 5.0 0.00 0.00 0.00 84 1025.0
20200225112536 45 159 1.0 2.0 0.00 0.00 0.00 83 1025.0
20200225112018 45 158 0.0 2.0 0.00 0.00 0.00 83 1025.1
20200225111521 45 193 0.0 2.0 0.00 0.00 0.00 84 1025.1
20200225111022 45 147 1.0 2.0 0.00 0.00 0.00 83 1025.0
20200225110531 45 305 0.0 2.0 0.00 0.00 0.00 82 1025.0
20200225110024 45 272 0.0 2.0 0.00 0.00 0.00 82 1024.9
20200225105515 45 74 0.0 1.0 0.00 0.00 0.00 82 1025.0
20200225105024 46 88 0.0 1.0 0.00 0.00 0.00 82 1024.9
20200225104527 46 88 0.0 2.0 0.00 0.00 0.00 82 1025.0
20200225104035 46 88 0.0 2.0 0.00 0.00 0.00 82 1025.0
20200225103517 46 314 0.0 2.0 0.00 0.00 0.00 82 1025.1
20200225103026 46 144 0.0 2.0 0.00 0.00 0.00 82 1025.1
20200225102528 46 155 0.0 1.0 0.00 0.00 0.00 82 1025.1
20200225102037 46 157 0.0 1.0 0.00 0.00 0.00 82 1025.1
20200225101521 46 157 0.0 1.0 0.00 0.00 0.00 81 1025.1
20200225100531 46 158 1.0 2.0 0.00 0.00 0.00 82 1025.2
20200225100023 46 149 0.0 2.0 0.00 0.00 0.00 82 1025.3
20200225095514 46 146 0.0 1.0 0.00 0.00 0.00 82 1025.4
20200225095023 46 147 0.0 1.0 0.00 0.00 0.00 82 1025.4
20200225094526 46 158 0.0 2.0 0.00 0.00 0.00 82 1025.4
20200225094027 45 166 0.0 1.0 0.00 0.00 0.00 83 1025.3
20200225093536 45 193 0.0 1.0 0.00 0.00 0.00 83 1025.3
20200225093035 45 111 0.0 2.0 0.00 0.00 0.00 84 1025.3
20200225092529 44 155 0.0 2.0 0.00 0.00 0.00 85 1025.3
20200225092038 44 150 0.0 2.0 0.00 0.00 0.00 84 1025.2
20200225091022 44 345 0.0 1.0 0.00 0.00 0.00 84 1025.2
20200225090531 44 344 0.0 0.0 0.00 0.00 0.00 84 1025.2
20200225090031 45 344 0.0 1.0 0.00 0.00 0.00 84 1025.2
20200225085522 45 343 0.0 3.0 0.00 0.00 0.00 84 1025.2
20200225084521 44 307 0.0 0.0 0.00 0.00 0.00 85 1025.2
20200225084021 44 307 0.0 0.0 0.00 0.00 0.00 84 1025.2
20200225083526 44 319 0.0 0.0 0.00 0.00 0.00 84 1025.2
20200225083012 45 190 0.0 0.0 0.00 0.00 0.00 85 1025.2
20200225082521 45 201 0.0 0.0 0.00 0.00 0.00 84 1025.2
20200225082023 45 201 0.0 0.0 0.00 0.00 0.00 84 1025.2
20200225081533 45 201 0.0 0.0 0.00 0.00 0.00 84 1025.2
20200225081014 45 201 0.0 0.0 0.00 0.00 0.00 84 1025.2
20200225080516 45 201 0.0 0.0 0.00 0.00 0.00 83 1025.2
20200225080042 45 202 0.0 0.0 0.00 0.00 0.00 83 1025.2
20200225075513 45 201 0.0 0.0 0.00 0.00 0.00 83 1025.2
20200225075015 45 201 0.0 0.0 0.00 0.00 0.00 82 1025.2
20200225074518 46 201 0.0 0.0 0.00 0.00 0.00 82 1025.3
20200225074027 46 201 0.0 0.0 0.00 0.00 0.00 81 1025.2
20200225073528 46 201 0.0 0.0 0.00 0.00 0.00 80 1025.2
20200225073038 46 201 0.0 0.0 0.00 0.00 0.00 80 1025.4
20200225072519 46 201 0.0 0.0 0.00 0.00 0.00 80 1025.3
20200225072020 46 201 0.0 0.0 0.00 0.00 0.00 79 1025.4
20200225071523 47 201 0.0 0.0 0.00 0.00 0.00 78 1025.4
20200225071012 47 201 0.0 0.0 0.00 0.00 0.00 77 1025.4
20200225070528 47 201 0.0 0.0 0.00 0.00 0.00 77 1025.4
20200225070040 47 201 0.0 0.0 0.00 0.00 0.00 78 1025.5
20200225065538 47 202 0.0 0.0 0.00 0.00 0.00 78 1025.6
20200225065020 47 201 0.0 0.0 0.00 0.00 0.00 77 1025.7
20200225064523 47 201 0.0 0.0 0.00 0.00 0.00 76 1025.6
20200225064031 48 201 0.0 0.0 0.00 0.00 0.00 76 1025.6
20200225063513 48 201 0.0 0.0 0.00 0.00 0.00 75 1025.6
20200225063014 48 201 0.0 0.0 0.00 0.00 0.00 74 1025.6
20200225062516 48 201 0.0 0.0 0.00 0.00 0.00 73 1025.6
20200225062026 49 201 0.0 0.0 0.00 0.00 0.00 73 1025.7
20200225061528 49 201 0.0 0.0 0.00 0.00 0.00 72 1025.8
20200225061029 49 201 0.0 0.0 0.00 0.00 0.00 71 1025.8
20200225060536 49 201 0.0 0.0 0.00 0.00 0.00 71 1025.8
20200225060028 49 202 0.0 0.0 0.00 0.00 0.00 70 1025.8
20200225055519 49 201 0.0 0.0 0.00 0.00 0.00 71 1025.9
20200225055028 49 201 0.0 0.0 0.00 0.00 0.00 70 1025.9
20200225054531 50 202 0.0 0.0 0.00 0.00 0.00 70 1025.9
20200225054015 50 201 0.0 0.0 0.00 0.00 0.00 69 1025.9
20200225053523 50 201 0.0 0.0 0.00 0.00 0.00 69 1025.9
20200225053025 51 201 0.0 0.0 0.00 0.00 0.00 69 1025.8
20200225052527 51 201 0.0 0.0 0.00 0.00 0.00 68 1025.8
20200225052036 51 201 0.0 0.0 0.00 0.00 0.00 68 1025.7
20200225051020 51 201 0.0 1.0 0.00 0.00 0.00 69 1025.6
20200225050530 51 201 0.0 1.0 0.00 0.00 0.00 70 1025.5
20200225050022 51 227 0.0 0.0 0.00 0.00 0.00 71 1025.4
20200225045513 51 226 0.0 0.0 0.00 0.00 0.00 72 1025.4
20200225045022 51 226 0.0 0.0 0.00 0.00 0.00 72 1025.4
20200225044525 52 227 0.0 0.0 0.00 0.00 0.00 71 1025.5
20200225044026 52 227 0.0 0.0 0.00 0.00 0.00 71 1025.4
20200225043535 52 226 0.0 0.0 0.00 0.00 0.00 71 1025.4
20200225042524 53 227 0.0 0.0 0.00 0.00 0.00 70 1025.3
20200225042026 54 226 0.0 0.0 0.00 0.00 0.00 69 1025.3
20200225041517 54 226 0.0 0.0 0.00 0.00 0.00 69 1025.4
20200225041017 55 227 0.0 0.0 0.00 0.00 0.00 68 1025.3
20200225040537 55 227 0.0 0.0 0.00 0.00 0.00 67 1025.3
20200225040055 55 227 0.0 0.0 0.00 0.00 0.00 66 1025.3
20200225035513 56 226 0.0 0.0 0.00 0.00 0.00 65 1025.3
20200225035014 56 226 0.0 0.0 0.00 0.00 0.00 64 1025.3
20200225034011 57 226 0.0 1.0 0.00 0.00 0.00 63 1025.2
20200225033515 57 226 0.0 1.0 0.00 0.00 0.00 61 1025.2
20200225033017 58 227 0.0 1.0 0.00 0.00 0.00 62 1025.1
20200225032526 58 82 0.0 1.0 0.00 0.00 0.00 62 1025.1
20200225032028 59 82 0.0 1.0 0.00 0.00 0.00 60 1025.1
20200225031538 59 82 0.0 1.0 0.00 0.00 0.00 59 1025.1
20200225031019 60 82 0.0 1.0 0.00 0.00 0.00 57 1025.1
20200225030521 60 82 0.0 1.0 0.00 0.00 0.00 55 1025.0
20200225030041 61 82 0.0 2.0 0.00 0.00 0.00 53 1025.0
20200225025513 62 82 1.0 2.0 0.00 0.00 0.00 51 1025.0
20200225025013 63 266 0.0 2.0 0.00 0.00 0.00 45 1024.9
20200225024516 63 266 1.0 2.0 0.00 0.00 0.00 45 1024.8
20200225024031 63 262 1.0 1.0 0.00 0.00 0.00 47 1024.7
20200225023513 64 259 0.0 2.0 0.00 0.00 0.00 45 1024.8
20200225023015 64 279 1.0 2.0 0.00 0.00 0.00 44 1024.7
20200225022524 64 224 0.0 2.0 0.00 0.00 0.00 46 1024.6
20200225022026 64 250 1.0 5.0 0.00 0.00 0.00 48 1024.7
20200225021529 64 280 2.0 6.0 0.00 0.00 0.00 48 1024.6
20200225020533 63 262 4.0 7.0 0.00 0.00 0.00 52 1024.6
20200225020026 63 241 3.0 6.0 0.00 0.00 0.00 54 1024.6
20200225015517 64 255 3.0 6.0 0.00 0.00 0.00 53 1024.5
20200225015027 65 259 2.0 4.0 0.00 0.00 0.00 52 1024.5
20200225014529 65 243 3.0 7.0 0.00 0.00 0.00 51 1024.4
20200225014030 65 207 3.0 7.0 0.00 0.00 0.00 50 1024.5
20200225013519 65 227 2.0 6.0 0.00 0.00 0.00 50 1024.4
20200225013028 66 229 1.0 6.0 0.00 0.00 0.00 50 1024.4
20200225012530 66 283 1.0 3.0 0.00 0.00 0.00 49 1024.4
20200225012012 67 281 1.0 5.0 0.00 0.00 0.00 49 1024.3
20200225011521 67 264 2.0 6.0 0.00 0.00 0.00 49 1024.3
20200225011023 68 253 3.0 8.0 0.00 0.00 0.00 46 1024.4
20200225010525 69 256 3.0 8.0 0.00 0.00 0.00 45 1024.4
20200225010025 70 228 3.0 8.0 0.00 0.00 0.00 43 1024.4
20200225005523 71 224 3.0 6.0 0.00 0.00 0.00 28 1024.4
20200225005012 72 234 1.0 4.0 0.00 0.00 0.00 28 1024.5
20200225004514 72 236 2.0 4.0 0.00 0.00 0.00 28 1024.5
20200225004023 72 248 1.0 5.0 0.00 0.00 0.00 28 1024.5
20200225003527 72 237 3.0 5.0 0.00 0.00 0.00 27 1024.6
20200225003036 72 253 2.0 4.0 0.00 0.00 0.00 27 1024.5
20200225002519 72 271 2.0 5.0 0.00 0.00 0.00 27 1024.6
20200225002028 72 245 3.0 5.0 0.00 0.00 0.00 26 1024.6
20200225001530 72 238 1.0 3.0 0.00 0.00 0.00 28 1024.6
20200225001011 73 284 2.0 6.0 0.00 0.00 0.00 27 1024.8